Time;durP1;ratioP1;P1;durP2;ratioP2;P2;SDS_P1;SDS_P2;PMS_P1;PMS_P2;Temp;Humidity;BMP_temperature;BMP_pressure;BME280_temperature;BME280_humidity;BME280_pressure;Samples;Min_cycle;Max_cycle;Signal;HPM_P1;HPM_P2
2023/09/06 00:01:17;;;;;;;1.83;1.30;;;;;;;25.59;44.69;100235.81;5055916;28;20048;-82
2023/09/06 00:03:44;;;;;;;2.10;1.40;;;;;;;25.55;45.29;100237.16;5073811;28;20051;-80
2023/09/06 00:06:11;;;;;;;1.67;1.30;;;;;;;25.48;45.17;100235.16;5064342;28;20049;-82
2023/09/06 00:08:37;;;;;;;2.20;1.70;;;;;;;25.45;45.04;100240.91;5054074;28;20053;-81
2023/09/06 00:11:06;;;;;;;2.50;1.40;;;;;;;25.43;45.11;100244.78;5053451;28;20552;-82
2023/09/06 00:13:34;;;;;;;1.73;1.35;;;;;;;25.40;45.21;100243.28;5053674;28;20053;-82
2023/09/06 00:16:02;;;;;;;4.47;1.42;;;;;;;25.36;45.77;100240.09;5058436;28;20121;-82
2023/09/06 00:18:29;;;;;;;1.95;1.30;;;;;;;25.34;45.52;100242.09;5073311;28;20067;-82
2023/09/06 00:20:57;;;;;;;1.30;1.20;;;;;;;25.30;45.95;100250.72;5073656;28;20057;-81
2023/09/06 00:23:25;;;;;;;3.58;1.33;;;;;;;25.24;45.88;100252.25;5073466;28;20472;-82
2023/09/06 00:25:55;;;;;;;2.70;1.27;;;;;;;25.19;46.05;100246.53;5072363;28;20201;-81
2023/09/06 00:28:24;;;;;;;3.40;1.30;;;;;;;25.15;46.02;100247.91;5053421;28;20136;-82
2023/09/06 00:30:52;;;;;;;1.15;1.05;;;;;;;25.09;45.92;100252.13;5053030;28;20075;-82
2023/09/06 00:33:19;;;;;;;2.17;1.17;;;;;;;25.02;45.68;100245.72;5053182;28;20084;-82
2023/09/06 00:35:46;;;;;;;1.45;1.30;;;;;;;24.95;46.10;100250.94;5065187;28;20048;-82
2023/09/06 00:38:13;;;;;;;2.03;1.60;;;;;;;24.87;46.14;100249.09;5073156;28;20046;-82
2023/09/06 00:40:40;;;;;;;3.92;1.25;;;;;;;24.80;46.17;100258.84;5055532;28;20408;-82
2023/09/06 00:43:08;;;;;;;2.13;1.30;;;;;;;24.72;46.75;100251.59;5072914;28;20049;-82
2023/09/06 00:45:44;;;;;;;2.25;1.30;;;;;;;24.62;47.73;100257.16;5064308;28;20140;-82
2023/09/06 00:48:26;;;;;;;1.42;1.33;;;;;;;24.53;47.33;100253.63;5056812;28;20523;-82
2023/09/06 00:50:55;;;;;;;1.95;1.25;;;;;;;24.52;47.61;100260.00;5054264;28;20048;-82
2023/09/06 00:53:24;;;;;;;3.13;1.25;;;;;;;24.46;47.69;100263.38;5072874;28;20510;-82
2023/09/06 00:55:51;;;;;;;1.67;1.25;;;;;;;24.38;47.57;100263.34;5064802;28;20135;-82
2023/09/06 00:58:19;;;;;;;2.90;1.55;;;;;;;24.31;47.45;100255.97;5052522;28;20131;-85
2023/09/06 01:00:48;;;;;;;2.78;1.17;;;;;;;24.27;47.42;100256.44;5054246;28;20515;-82
2023/09/06 01:03:16;;;;;;;1.27;1.10;;;;;;;24.20;47.77;100253.56;5072707;28;20055;-82
2023/09/06 01:06:09;;;;;;;1.75;1.27;;;;;;;24.08;47.90;100256.53;5072737;28;20044;-81
2023/09/06 01:08:40;;;;;;;2.20;1.35;;;;;;;24.09;48.03;100249.31;5034523;28;20054;-82
2023/09/06 01:11:21;;;;;;;2.20;1.27;;;;;;;24.04;48.05;100249.78;5053658;28;20059;-82
2023/09/06 01:13:50;;;;;;;1.20;1.02;;;;;;;24.05;47.67;100251.50;5052607;28;20436;-82
2023/09/06 01:16:23;;;;;;;3.72;1.48;;;;;;;24.01;48.26;100252.84;5034776;28;20049;-81
2023/09/06 01:18:50;;;;;;;2.00;1.58;;;;;;;24.01;48.75;100254.66;5052285;28;20091;-82
2023/09/06 01:21:19;;;;;;;1.23;1.05;;;;;;;23.97;48.27;100250.63;5069064;28;20056;-82
2023/09/06 01:23:47;;;;;;;2.83;1.40;;;;;;;23.92;48.22;100251.13;5072402;28;20074;-82
2023/09/06 01:26:15;;;;;;;1.38;1.20;;;;;;;23.89;48.21;100265.72;5072340;28;20087;-80
2023/09/06 01:28:42;;;;;;;1.63;1.15;;;;;;;23.86;47.78;100263.38;5071987;28;20079;-82
2023/09/06 01:31:09;;;;;;;5.97;1.60;;;;;;;23.85;48.06;100263.53;5058481;28;20048;-82
2023/09/06 01:33:36;;;;;;;4.70;1.40;;;;;;;23.84;47.78;100267.22;5052226;28;20413;-82
2023/09/06 01:36:03;;;;;;;3.05;1.20;;;;;;;23.80;47.86;100264.84;5052255;28;20045;-82
2023/09/06 01:38:32;;;;;;;1.95;1.30;;;;;;;23.80;48.18;100264.00;5052038;28;20474;-82
2023/09/06 01:40:59;;;;;;;1.80;1.23;;;;;;;23.80;48.01;100267.56;5060832;28;20048;-82
2023/09/06 01:43:28;;;;;;;2.20;1.35;;;;;;;23.79;48.46;100259.66;5071865;28;20048;-82
2023/09/06 01:45:55;;;;;;;3.20;1.17;;;;;;;23.78;48.57;100258.78;5071805;28;20139;-82
2023/09/06 01:48:22;;;;;;;1.30;1.20;;;;;;;23.79;49.15;100265.00;5071071;28;20049;-82
2023/09/06 01:50:49;;;;;;;1.35;1.17;;;;;;;23.78;48.61;100261.47;5069987;28;20048;-82
2023/09/06 01:53:15;;;;;;;2.38;1.40;;;;;;;23.79;48.71;100265.88;5071882;28;20045;-81
2023/09/06 01:55:43;;;;;;;1.40;1.30;;;;;;;23.80;48.57;100264.00;5071722;28;20485;-81
2023/09/06 01:58:10;;;;;;;1.80;1.52;;;;;;;23.80;49.37;100259.47;5071557;28;20063;-81
2023/09/06 02:00:37;;;;;;;2.08;1.52;;;;;;;23.80;48.45;100264.00;5064794;28;20076;-81
2023/09/06 02:03:09;;;;;;;1.48;1.25;;;;;;;23.77;48.78;100273.25;5051398;28;20049;-82
2023/09/06 02:05:36;;;;;;;1.60;1.30;;;;;;;23.73;48.68;100263.81;5051960;28;20052;-82
2023/09/06 02:08:06;;;;;;;1.60;1.50;;;;;;;23.67;47.92;100269.84;5051672;28;20465;-82
2023/09/06 02:10:32;;;;;;;3.20;1.30;;;;;;;23.60;48.18;100269.66;5054161;28;20075;-82
2023/09/06 02:12:59;;;;;;;1.92;1.35;;;;;;;23.53;48.35;100269.44;5064267;28;20048;-82
2023/09/06 02:15:29;;;;;;;2.83;1.48;;;;;;;23.48;48.95;100277.16;5060942;28;20052;-81
2023/09/06 02:17:56;;;;;;;1.92;1.55;;;;;;;23.41;48.58;100268.03;5071589;28;20102;-81
2023/09/06 02:20:24;;;;;;;1.40;1.30;;;;;;;23.38;49.05;100271.03;5071468;28;20396;-82
2023/09/06 02:22:56;;;;;;;2.40;1.30;;;;;;;23.32;49.11;100271.66;5051779;28;20110;-82
2023/09/06 02:25:28;;;;;;;1.20;1.10;;;;;;;23.28;49.55;100271.97;5051405;28;20049;-81
2023/09/06 02:28:03;;;;;;;4.03;1.23;;;;;;;23.27;49.58;100281.03;5051268;28;20059;-81
2023/09/06 02:30:31;;;;;;;1.30;1.17;;;;;;;23.24;49.58;100270.59;5051503;28;20063;-82
2023/09/06 02:32:57;;;;;;;2.13;1.40;;;;;;;23.21;49.48;100276.25;5066797;28;20110;-82
2023/09/06 02:35:24;;;;;;;1.25;1.15;;;;;;;23.19;49.69;100280.13;5051131;28;20551;-81
2023/09/06 02:37:50;;;;;;;1.60;1.27;;;;;;;23.15;50.23;100272.41;5051170;28;20111;-81
2023/09/06 02:40:18;;;;;;;1.35;1.17;;;;;;;23.12;49.69;100272.69;5033363;28;20472;-81
2023/09/06 02:42:45;;;;;;;2.38;1.35;;;;;;;23.09;49.90;100283.75;5063743;28;20049;-82
2023/09/06 02:45:11;;;;;;;1.92;1.50;;;;;;;23.01;49.99;100271.13;5071439;28;20084;-82
2023/09/06 02:47:50;;;;;;;1.30;1.20;;;;;;;22.96;50.92;100272.56;5071205;28;20045;-81
2023/09/06 02:50:23;;;;;;;2.05;1.27;;;;;;;22.91;50.31;100281.09;5071141;28;20059;-82
2023/09/06 02:52:53;;;;;;;3.28;1.40;;;;;;;22.86;50.60;100278.03;5042164;28;20636;-81
2023/09/06 02:55:20;;;;;;;2.83;1.48;;;;;;;22.80;50.62;100287.53;5051236;28;20525;-82
2023/09/06 02:57:49;;;;;;;1.67;1.58;;;;;;;22.75;50.61;100287.16;5051116;28;20497;-82
2023/09/06 03:00:25;;;;;;;2.30;1.20;;;;;;;22.70;50.75;100282.28;5054078;28;20045;-81
2023/09/06 03:03:05;;;;;;;3.45;1.60;;;;;;;22.63;51.48;100279.38;5056123;28;20136;-83
2023/09/06 03:05:41;;;;;;;2.05;1.55;;;;;;;22.61;50.66;100280.53;5054967;28;20500;-81
2023/09/06 03:08:08;;;;;;;3.22;1.55;;;;;;;22.58;50.83;100280.81;5037117;28;20056;-81
2023/09/06 03:10:35;;;;;;;1.50;1.33;;;;;;;22.57;51.16;100279.16;5054835;28;20084;-81
2023/09/06 03:13:02;;;;;;;1.40;1.30;;;;;;;22.55;51.38;100289.16;5060586;28;20385;-82
2023/09/06 03:15:29;;;;;;;1.73;1.45;;;;;;;22.57;51.20;100281.81;5074972;28;20040;-81
2023/09/06 03:17:58;;;;;;;2.22;1.65;;;;;;;22.58;51.50;100288.88;5057302;28;20560;-81
2023/09/06 03:20:33;;;;;;;2.78;1.60;;;;;;;22.59;51.57;100293.22;5074899;28;20131;-82
2023/09/06 03:23:17;;;;;;;1.70;1.60;;;;;;;22.58;51.93;100280.81;5071797;28;20080;-81
2023/09/06 03:25:50;;;;;;;1.70;1.27;;;;;;;22.61;51.34;100291.25;5039580;28;20390;-82
2023/09/06 03:28:20;;;;;;;1.70;1.42;;;;;;;22.63;51.45;100292.78;5054699;28;20206;-81
2023/09/06 03:30:48;;;;;;;1.70;1.60;;;;;;;22.64;51.46;100298.97;5054657;28;20084;-81
2023/09/06 03:33:15;;;;;;;1.75;1.45;;;;;;;22.65;51.44;100297.97;5054592;28;20060;-81
2023/09/06 03:35:45;;;;;;;2.08;1.48;;;;;;;22.65;51.56;100288.09;5066618;28;20113;-82
2023/09/06 03:38:15;;;;;;;1.60;1.33;;;;;;;22.67;51.29;100301.38;5054304;28;20053;-81
2023/09/06 03:40:42;;;;;;;1.70;1.58;;;;;;;22.70;51.08;100292.16;5054401;28;20052;-81
2023/09/06 03:43:26;;;;;;;2.30;1.58;;;;;;;22.69;51.87;100291.31;5054197;28;20064;-81
2023/09/06 03:46:07;;;;;;;2.80;1.67;;;;;;;22.73;51.43;100295.38;5050136;28;20044;-81
2023/09/06 03:48:36;;;;;;;2.23;1.50;;;;;;;22.75;52.02;100292.53;5074171;28;20084;-81
2023/09/06 03:51:04;;;;;;;2.38;1.52;;;;;;;22.77;51.81;100293.25;5073783;28;20110;-81
2023/09/06 03:53:32;;;;;;;2.50;1.50;;;;;;;22.79;51.49;100299.28;5074035;28;20053;-81
2023/09/06 03:56:00;;;;;;;1.83;1.45;;;;;;;22.81;51.61;100304.50;5064261;28;20115;-81
2023/09/06 03:58:30;;;;;;;3.83;1.60;;;;;;;22.83;51.84;100302.53;5071603;28;20484;-81
2023/09/06 04:00:57;;;;;;;2.17;1.30;;;;;;;22.84;51.48;100302.34;5073568;28;20048;-81
2023/09/06 04:03:26;;;;;;;2.72;1.50;;;;;;;22.85;51.09;100301.38;5073641;28;20052;-81
2023/09/06 04:05:53;;;;;;;3.50;1.40;;;;;;;22.86;51.34;100304.88;5073816;28;20086;-81
2023/09/06 04:08:20;;;;;;;1.63;1.30;;;;;;;22.86;51.20;100308.41;5059637;28;20095;-79
2023/09/06 04:10:48;;;;;;;1.52;1.40;;;;;;;22.86;51.06;100310.25;5052475;28;20053;-81
2023/09/06 04:13:14;;;;;;;1.10;1.05;;;;;;;22.84;50.98;100306.88;5052865;28;20084;-82
2023/09/06 04:15:44;;;;;;;1.60;1.50;;;;;;;22.80;51.27;100317.06;5052836;28;20057;-82
2023/09/06 04:18:12;;;;;;;1.85;1.38;;;;;;;22.75;51.18;100303.28;5061682;28;20052;-82
2023/09/06 04:20:46;;;;;;;3.67;1.35;;;;;;;22.70;51.07;100305.56;5073108;28;20135;-82
2023/09/06 04:23:16;;;;;;;2.75;1.70;;;;;;;22.64;50.85;100307.88;5072595;28;20508;-82
2023/09/06 04:25:46;;;;;;;1.88;1.65;;;;;;;22.60;51.03;100308.31;5072927;28;20053;-82
2023/09/06 04:28:14;;;;;;;4.85;1.73;;;;;;;22.54;51.54;100315.09;5066303;28;20045;-81
2023/09/06 04:30:43;;;;;;;2.45;1.70;;;;;;;22.49;51.71;100309.38;5052597;28;20122;-81
2023/09/06 04:33:14;;;;;;;1.52;1.42;;;;;;;22.45;51.37;100307.97;5053694;28;20120;-80
2023/09/06 04:35:49;;;;;;;3.42;1.60;;;;;;;22.38;52.34;100313.97;5036148;28;20052;-81
2023/09/06 04:38:20;;;;;;;2.00;1.50;;;;;;;22.38;51.83;100315.78;5056583;28;20040;-81
2023/09/06 04:40:48;;;;;;;2.65;1.77;;;;;;;22.36;51.85;100317.78;5072568;28;20102;-81
2023/09/06 04:43:22;;;;;;;3.67;1.60;;;;;;;22.32;52.10;100317.22;5072432;28;20045;-81
2023/09/06 04:45:49;;;;;;;2.38;1.70;;;;;;;22.29;51.75;100320.25;5072751;28;20044;-82
2023/09/06 04:48:16;;;;;;;3.47;1.77;;;;;;;22.26;52.46;100320.53;5071200;28;20040;-79
2023/09/06 04:50:45;;;;;;;3.13;1.80;;;;;;;22.23;52.43;100326.19;5052377;28;20053;-82
2023/09/06 04:53:12;;;;;;;2.03;1.40;;;;;;;22.20;52.24;100321.97;5034747;28;20051;-81
2023/09/06 04:55:39;;;;;;;1.92;1.58;;;;;;;22.18;52.68;100323.13;5052196;28;20048;-80
2023/09/06 04:58:08;;;;;;;2.17;1.70;;;;;;;22.14;52.41;100317.22;5052497;28;20051;-81
2023/09/06 05:00:38;;;;;;;1.55;1.38;;;;;;;22.12;52.45;100325.41;5067993;28;20459;-81
2023/09/06 05:03:11;;;;;;;2.22;1.33;;;;;;;22.10;52.44;100321.19;5052189;28;20053;-81
2023/09/06 05:05:39;;;;;;;3.72;1.58;;;;;;;22.08;52.85;100318.66;5052363;28;20064;-81
2023/09/06 05:08:06;;;;;;;2.15;1.52;;;;;;;22.07;53.00;100322.34;5051620;28;20045;-81
2023/09/06 05:10:37;;;;;;;1.52;1.42;;;;;;;22.05;52.89;100318.94;5065161;28;20056;-81
2023/09/06 05:13:07;;;;;;;2.75;1.60;;;;;;;22.05;53.34;100328.84;5071612;28;20048;-80
2023/09/06 05:15:35;;;;;;;3.72;1.50;;;;;;;22.05;53.63;100328.84;5071778;28;20083;-81
2023/09/06 05:18:04;;;;;;;2.22;1.50;;;;;;;22.04;53.48;100332.50;5071591;28;20052;-81
2023/09/06 05:20:33;;;;;;;1.70;1.48;;;;;;;22.04;53.59;100330.66;5060681;28;20099;-81
2023/09/06 05:23:03;;;;;;;2.13;1.70;;;;;;;22.05;53.57;100339.56;5050263;28;20053;-79
2023/09/06 05:25:30;;;;;;;5.72;1.65;;;;;;;22.04;53.54;100336.03;5049731;28;20088;-79
2023/09/06 05:28:00;;;;;;;2.03;1.55;;;;;;;22.04;53.34;100338.72;5032456;28;20044;-80
2023/09/06 05:30:26;;;;;;;3.60;1.52;;;;;;;22.06;53.53;100346.59;5056832;28;20052;-79
2023/09/06 05:32:56;;;;;;;1.40;1.27;;;;;;;22.07;54.32;100342.94;5059195;28;20128;-80
2023/09/06 05:35:26;;;;;;;2.40;1.60;;;;;;;22.11;53.98;100338.97;5052681;28;20061;-80
2023/09/06 05:37:52;;;;;;;1.58;1.45;;;;;;;22.17;53.75;100343.75;5070016;28;20091;-80
2023/09/06 05:40:26;;;;;;;2.50;1.65;;;;;;;22.23;54.09;100343.13;5053071;28;20053;-80
2023/09/06 05:42:53;;;;;;;3.25;1.50;;;;;;;22.31;53.74;100344.22;5071089;28;20056;-80
2023/09/06 05:45:21;;;;;;;4.93;1.30;;;;;;;22.36;54.02;100348.13;5071388;28;20088;-79
2023/09/06 05:47:48;;;;;;;1.95;1.23;;;;;;;22.44;53.96;100350.06;5061944;28;20044;-80
2023/09/06 05:50:16;;;;;;;1.58;1.42;;;;;;;22.49;53.77;100347.78;5071234;28;20162;-80
2023/09/06 05:52:43;;;;;;;2.35;1.48;;;;;;;22.54;53.36;100347.31;5045005;28;20102;-80
2023/09/06 05:55:10;;;;;;;3.75;1.55;;;;;;;22.60;52.83;100351.25;5049919;28;20080;-79
2023/09/06 05:57:38;;;;;;;2.92;1.67;;;;;;;22.65;53.37;100357.00;5049294;28;20094;-80
2023/09/06 06:00:12;;;;;;;1.50;1.33;;;;;;;22.69;53.12;100357.56;5049375;28;20071;-80
2023/09/06 06:02:39;;;;;;;1.65;1.20;;;;;;;22.76;53.22;100356.78;5052436;28;20044;-79
2023/09/06 06:05:06;;;;;;;1.92;1.15;;;;;;;22.81;52.99;100358.19;5052725;28;20049;-80
2023/09/06 06:07:33;;;;;;;3.00;1.40;;;;;;;22.85;53.16;100359.56;5050401;28;20044;-79
2023/09/06 06:10:00;;;;;;;1.38;1.17;;;;;;;22.89;52.79;100355.56;5070738;28;20140;-80
2023/09/06 06:12:27;;;;;;;1.50;1.40;;;;;;;22.93;52.36;100362.31;5070877;28;20048;-81
2023/09/06 06:14:53;;;;;;;1.35;1.00;;;;;;;22.97;52.77;100358.34;5041857;28;20053;-81
2023/09/06 06:17:20;;;;;;;2.78;1.40;;;;;;;23.02;52.46;100361.38;5050035;28;20140;-81
2023/09/06 06:19:48;;;;;;;1.80;1.35;;;;;;;23.08;52.17;100369.81;5032996;28;20053;-80
2023/09/06 06:22:15;;;;;;;1.95;1.30;;;;;;;23.14;51.93;100366.53;5050523;28;20053;-81
2023/09/06 06:24:45;;;;;;;1.40;1.30;;;;;;;23.20;52.11;100365.03;5057263;28;20048;-81
2023/09/06 06:27:13;;;;;;;1.65;1.27;;;;;;;23.25;51.62;100363.59;5059227;28;20135;-80
2023/09/06 06:29:40;;;;;;;2.03;1.30;;;;;;;23.32;51.71;100354.91;5064852;28;20109;-80
2023/09/06 06:32:07;;;;;;;1.80;1.35;;;;;;;23.37;51.40;100356.16;5070524;28;20135;-80
2023/09/06 06:34:38;;;;;;;2.78;1.40;;;;;;;23.43;51.66;100362.72;5071421;28;20226;-80
2023/09/06 06:37:05;;;;;;;1.75;1.50;;;;;;;23.50;51.76;100360.25;5057062;28;20375;-79
2023/09/06 06:39:32;;;;;;;3.25;1.45;;;;;;;23.54;51.73;100359.81;5064750;28;20493;-80
2023/09/06 06:41:59;;;;;;;1.42;1.30;;;;;;;23.60;51.85;100358.31;5077117;28;20044;-80
2023/09/06 06:44:26;;;;;;;2.45;1.60;;;;;;;23.66;51.71;100362.22;5065974;28;20041;-80
2023/09/06 06:46:52;;;;;;;3.42;1.45;;;;;;;23.69;51.77;100365.44;5057493;28;20110;-81
2023/09/06 06:49:19;;;;;;;2.20;1.42;;;;;;;23.74;52.13;100364.13;5039294;28;20110;-80
2023/09/06 06:51:46;;;;;;;2.17;1.48;;;;;;;23.78;52.21;100366.31;5056873;28;20056;-80
2023/09/06 06:54:16;;;;;;;1.67;1.50;;;;;;;23.85;52.02;100371.06;5057298;28;20444;-80
2023/09/06 06:56:42;;;;;;;1.85;1.38;;;;;;;23.88;51.68;100368.88;5057236;28;20060;-80
2023/09/06 06:59:09;;;;;;;2.17;1.60;;;;;;;23.94;51.56;100372.78;5057051;28;20049;-79
2023/09/06 07:01:36;;;;;;;3.45;1.60;;;;;;;23.99;51.68;100370.44;5056987;28;20045;-80
2023/09/06 07:04:06;;;;;;;1.38;1.27;;;;;;;24.04;51.45;100375.38;5056922;28;20057;-80
2023/09/06 07:06:34;;;;;;;4.47;1.80;;;;;;;24.10;51.44;100382.81;5056916;28;20084;-80
2023/09/06 07:09:03;;;;;;;5.85;1.70;;;;;;;24.15;51.44;100374.25;5057281;28;20045;-79
2023/09/06 07:11:31;;;;;;;1.98;1.50;;;;;;;24.19;51.47;100381.84;5056926;28;20128;-80
2023/09/06 07:13:57;;;;;;;3.92;1.45;;;;;;;24.24;51.27;100380.50;5057076;28;20547;-80
2023/09/06 07:16:24;;;;;;;2.80;1.38;;;;;;;24.28;51.40;100380.03;5057015;28;20489;-80
2023/09/06 07:18:54;;;;;;;3.20;1.40;;;;;;;24.32;51.08;100378.69;5056989;28;20436;-79
2023/09/06 07:21:21;;;;;;;3.88;1.40;;;;;;;24.37;51.35;100377.38;5056924;28;20047;-80
2023/09/06 07:23:47;;;;;;;4.03;1.50;;;;;;;24.41;50.83;100376.03;5056842;28;20052;-80
2023/09/06 07:26:14;;;;;;;1.30;1.20;;;;;;;24.45;51.23;100378.22;5056972;28;20049;-79
2023/09/06 07:28:46;;;;;;;6.00;1.88;;;;;;;24.51;51.01;100378.59;5056882;28;20083;-80
2023/09/06 07:31:14;;;;;;;3.57;1.90;;;;;;;24.55;50.93;100372.72;5056521;28;20545;-79
2023/09/06 07:33:41;;;;;;;3.08;1.70;;;;;;;24.59;51.03;100379.44;5057102;28;20436;-80
2023/09/06 07:36:07;;;;;;;1.95;1.70;;;;;;;24.65;51.11;100379.78;5056824;28;20049;-80
2023/09/06 07:38:34;;;;;;;2.00;1.40;;;;;;;24.70;51.11;100382.81;5056840;28;20110;-80
2023/09/06 07:41:02;;;;;;;1.52;1.30;;;;;;;24.73;50.74;100383.34;5056426;28;20052;-80
2023/09/06 07:43:30;;;;;;;2.10;1.55;;;;;;;24.79;50.60;100379.16;5056758;28;20080;-79
2023/09/06 07:45:57;;;;;;;4.00;1.67;;;;;;;24.84;50.56;100379.53;5053485;28;20452;-80
2023/09/06 07:48:30;;;;;;;2.25;1.52;;;;;;;24.90;50.59;100378.03;5053552;28;20140;-79
2023/09/06 07:50:59;;;;;;;4.32;1.90;;;;;;;24.95;50.75;100374.81;5053273;28;20064;-79
2023/09/06 07:53:26;;;;;;;2.00;1.70;;;;;;;25.01;50.72;100386.78;5053576;28;20052;-79
2023/09/06 07:55:53;;;;;;;3.65;1.83;;;;;;;25.06;51.04;100389.81;5053388;28;20056;-80
2023/09/06 07:58:21;;;;;;;2.40;1.63;;;;;;;25.11;50.62;100382.91;5053441;28;20089;-80
2023/09/06 08:00:48;;;;;;;3.35;1.90;;;;;;;25.16;50.61;100390.50;5053352;28;20053;-80
2023/09/06 08:03:28;;;;;;;2.40;1.70;;;;;;;25.23;50.63;100387.97;5053361;28;20059;-80
2023/09/06 08:05:56;;;;;;;3.55;1.83;;;;;;;25.29;50.54;100386.44;5053179;28;20084;-80
2023/09/06 08:08:22;;;;;;;6.93;1.88;;;;;;;25.33;50.55;100391.31;5053047;28;20056;-80
2023/09/06 08:10:49;;;;;;;3.70;1.95;;;;;;;25.38;50.80;100390.84;5053058;28;20482;-79
2023/09/06 08:13:15;;;;;;;2.90;1.85;;;;;;;25.44;51.04;100392.84;5053023;28;20099;-80
2023/09/06 08:15:42;;;;;;;2.35;1.80;;;;;;;25.49;51.02;100393.16;5053169;28;20044;-80
2023/09/06 08:18:10;;;;;;;2.35;1.65;;;;;;;25.55;51.11;100388.94;5052872;28;20140;-79
2023/09/06 08:20:37;;;;;;;3.92;1.98;;;;;;;25.60;50.93;100394.69;5052790;28;20410;-79
2023/09/06 08:23:04;;;;;;;3.00;2.00;;;;;;;25.66;50.92;100392.31;5052700;28;20114;-80
2023/09/06 08:25:31;;;;;;;2.58;1.60;;;;;;;25.71;51.03;100392.66;5052687;28;20480;-79
2023/09/06 08:27:57;;;;;;;5.60;2.20;;;;;;;25.78;50.89;100400.91;5053005;28;20123;-80
2023/09/06 08:30:24;;;;;;;3.80;1.85;;;;;;;25.82;51.03;100400.38;5052718;28;20107;-80
2023/09/06 08:32:51;;;;;;;5.07;1.90;;;;;;;25.87;51.27;100403.38;5052642;28;20473;-79
2023/09/06 08:35:18;;;;;;;2.58;1.80;;;;;;;25.94;51.15;100406.25;5052730;28;20052;-80
2023/09/06 08:37:47;;;;;;;5.70;2.10;;;;;;;25.99;50.40;100400.34;5052669;28;20044;-80
2023/09/06 08:40:16;;;;;;;2.53;1.60;;;;;;;26.05;49.97;100399.63;5052332;28;20127;-80
2023/09/06 08:42:44;;;;;;;4.10;2.05;;;;;;;26.11;49.90;100398.94;5052517;28;20106;-80
2023/09/06 08:45:11;;;;;;;2.10;1.90;;;;;;;26.19;50.32;100402.59;5112280;22;20036;-80
2023/09/06 08:47:41;;;;;;;2.42;1.55;;;;;;;26.25;49.70;100401.94;5050280;28;20048;-76
2023/09/06 08:50:09;;;;;;;6.85;1.70;;;;;;;26.31;49.57;100401.25;5053135;28;20500;-75
2023/09/06 08:52:41;;;;;;;3.45;1.63;;;;;;;26.37;49.37;100405.97;5035092;28;20052;-78
2023/09/06 08:55:10;;;;;;;2.90;1.73;;;;;;;26.46;48.99;100405.91;5053098;28;20072;-76
2023/09/06 08:57:41;;;;;;;2.25;1.48;;;;;;;26.52;48.02;100407.91;5052742;28;20071;-78
2023/09/06 09:00:11;;;;;;;10.23;3.53;;;;;;;26.59;48.60;100408.88;5052801;28;20072;-75
2023/09/06 09:02:40;;;;;;;4.22;2.63;;;;;;;26.65;48.54;100408.16;5052672;28;20044;-75
2023/09/06 09:05:08;;;;;;;8.43;2.58;;;;;;;26.72;48.88;100410.97;5052663;28;20057;-77
2023/09/06 09:07:57;;;;;;;6.57;2.70;;;;;;;26.80;48.74;100407.41;5052866;28;20051;-75
2023/09/06 09:10:26;;;;;;;2.10;1.60;;;;;;;26.88;49.40;100411.91;5052834;28;20132;-76
2023/09/06 09:12:55;;;;;;;4.18;2.03;;;;;;;26.94;49.15;100405.78;5052498;28;20724;-74
2023/09/06 09:15:25;;;;;;;3.40;1.65;;;;;;;27.03;49.08;100409.31;5034942;28;20428;-76
2023/09/06 09:17:53;;;;;;;4.18;1.85;;;;;;;27.12;48.26;100410.06;5052392;28;20402;-75
2023/09/06 09:20:30;;;;;;;1.95;1.75;;;;;;;27.18;47.83;100412.88;5052688;28;20049;-74
2023/09/06 09:23:03;;;;;;;4.22;2.17;;;;;;;27.23;47.50;100415.06;5052498;28;20099;-74
2023/09/06 09:25:29;;;;;;;;;;;;;;;27.31;48.25;100416.84;5035290;28;20732;-75
2023/09/06 09:27:57;;;;;;;3.00;1.80;;;;;;;27.45;48.08;100413.34;5052227;28;19990;-76
2023/09/06 09:30:27;;;;;;;2.40;1.63;;;;;;;27.52;47.06;100412.59;5052406;28;20080;-75
2023/09/06 09:33:03;;;;;;;3.38;1.70;;;;;;;27.56;47.19;100420.19;5052164;28;20108;-77
2023/09/06 09:35:31;;;;;;;3.25;2.15;;;;;;;27.67;48.26;100415.38;5052330;28;20130;-75
2023/09/06 09:38:01;;;;;;;3.03;1.80;;;;;;;27.76;46.63;100416.09;5051951;28;20519;-78
2023/09/06 09:40:33;;;;;;;3.17;2.10;;;;;;;27.84;47.14;100418.72;5051907;28;20048;-74
2023/09/06 09:43:18;;;;;;;3.90;1.95;;;;;;;27.95;46.91;100415.56;5052304;28;20045;-75
2023/09/06 09:45:45;;;;;;;3.65;2.10;;;;;;;28.03;46.46;100419.22;5051924;28;20532;-75
2023/09/06 09:48:15;;;;;;;2.83;1.73;;;;;;;28.13;46.41;100419.78;5052237;28;20045;-76
2023/09/06 09:50:43;;;;;;;3.63;2.20;;;;;;;28.22;46.87;100417.81;5051811;28;20049;-75
2023/09/06 09:53:12;;;;;;;3.58;1.90;;;;;;;28.31;45.23;100423.97;5051637;28;20045;-77
2023/09/06 09:55:46;;;;;;;4.55;2.00;;;;;;;28.38;46.01;100416.78;5052242;28;20051;-75
2023/09/06 09:58:13;;;;;;;2.38;1.90;;;;;;;28.49;45.36;100413.56;5051881;28;20483;-75
2023/09/06 10:00:41;;;;;;;3.75;2.10;;;;;;;28.59;46.22;100420.59;5051501;28;20551;-77
2023/09/06 10:03:09;;;;;;;3.38;1.80;;;;;;;28.68;46.33;100415.88;5051488;28;20103;-77
2023/09/06 10:05:37;;;;;;;2.72;1.92;;;;;;;28.79;46.67;100417.25;5051594;28;20484;-75
2023/09/06 10:08:07;;;;;;;1.98;1.77;;;;;;;28.89;45.83;100417.75;5050762;28;20049;-75
2023/09/06 10:10:37;;;;;;;2.53;2.05;;;;;;;28.98;45.99;100419.34;5051020;28;20049;-75
2023/09/06 10:13:07;;;;;;;3.25;2.33;;;;;;;29.11;44.37;100417.78;5050902;28;20394;-76
2023/09/06 10:15:35;;;;;;;2.53;2.20;;;;;;;29.21;45.33;100415.59;5050915;28;20493;-74
2023/09/06 10:18:04;;;;;;;2.10;1.90;;;;;;;29.32;45.49;100410.66;5050756;28;20052;-74
2023/09/06 10:20:34;;;;;;;2.38;2.03;;;;;;;29.42;45.75;100403.06;5051157;28;20060;-78
2023/09/06 10:23:01;;;;;;;6.38;2.03;;;;;;;29.55;45.08;100404.19;5050824;28;20052;-76
2023/09/06 10:25:28;;;;;;;3.88;2.05;;;;;;;29.66;44.92;100406.38;5050899;28;20045;-77
2023/09/06 10:27:56;;;;;;;2.40;2.10;;;;;;;29.78;45.45;100412.94;5050881;28;20135;-76
2023/09/06 10:30:50;;;;;;;2.35;1.98;;;;;;;29.89;45.21;100405.25;5033248;28;20139;-75
2023/09/06 10:33:29;;;;;;;3.33;2.00;;;;;;;30.00;43.95;100406.56;5050970;28;20052;-78
2023/09/06 10:36:03;;;;;;;1.80;1.70;;;;;;;30.12;42.71;100406.84;5050739;28;20132;-76
2023/09/06 10:38:30;;;;;;;2.70;2.08;;;;;;;30.23;45.56;100406.28;5051175;28;20053;-75
2023/09/06 10:40:57;;;;;;;1.67;1.58;;;;;;;30.34;44.10;100404.06;5050325;28;20135;-74
2023/09/06 10:43:29;;;;;;;2.83;1.90;;;;;;;30.44;45.37;100404.50;5050866;28;20063;-76
2023/09/06 10:45:56;;;;;;;5.33;1.90;;;;;;;30.55;44.40;100406.63;5050815;28;20063;-76
2023/09/06 10:48:23;;;;;;;3.13;2.00;;;;;;;30.64;43.59;100399.13;5050545;28;20136;-79
2023/09/06 10:51:04;;;;;;;2.60;1.88;;;;;;;30.71;44.18;100407.28;5050828;28;20049;-75
2023/09/06 10:53:30;;;;;;;1.90;1.70;;;;;;;30.86;44.45;100403.56;5050595;28;20135;-74
2023/09/06 10:55:59;;;;;;;2.17;1.55;;;;;;;30.99;43.30;100409.06;5050485;28;20568;-80
2023/09/06 10:58:28;;;;;;;2.63;2.05;;;;;;;31.13;42.65;100409.88;5050583;28;20412;-76
2023/09/06 11:01:20;;;;;;;2.58;2.20;;;;;;;31.28;43.24;100406.13;5032463;28;20148;-77
2023/09/06 11:03:58;;;;;;;6.10;2.05;;;;;;;31.55;44.07;100406.97;5050426;28;20098;-75
2023/09/06 11:06:26;;;;;;;3.30;2.17;;;;;;;31.90;44.64;100403.16;5050627;28;20065;-75
2023/09/06 11:08:54;;;;;;;2.30;2.00;;;;;;;32.34;45.18;100392.53;5050597;28;20448;-75
2023/09/06 11:11:21;;;;;;;2.45;2.03;;;;;;;32.93;44.36;100401.63;5050338;28;20080;-76
2023/09/06 11:13:47;;;;;;;2.70;2.10;;;;;;;33.60;43.48;100395.66;5050540;28;20131;-75
2023/09/06 11:16:18;;;;;;;2.33;1.75;;;;;;;34.34;41.55;100396.72;5050368;28;20417;-75
2023/09/06 11:18:49;;;;;;;1.58;1.48;;;;;;;35.09;38.20;100399.22;5050733;28;20049;-78
2023/09/06 11:21:17;;;;;;;1.60;1.30;;;;;;;35.80;39.08;100390.22;5052965;28;20053;-76
2023/09/06 11:23:50;;;;;;;2.58;1.50;;;;;;;36.50;36.21;100394.91;5054225;28;20056;-77
2023/09/06 11:26:17;;;;;;;4.32;1.75;;;;;;;37.15;35.44;100394.69;5054312;28;20048;-77
2023/09/06 11:28:44;;;;;;;1.77;1.50;;;;;;;37.74;34.77;100390.59;5054058;28;20048;-77
2023/09/06 11:31:22;;;;;;;1.70;1.40;;;;;;;38.29;34.13;100385.25;5053746;28;20063;-75
2023/09/06 11:33:55;;;;;;;2.90;1.20;;;;;;;38.83;31.84;100386.31;5053848;28;20076;-75